createdAt,value
2022-08-07T00:00:21.539Z,30.071
2022-08-07T00:05:20.098Z,30.071
2022-08-07T00:10:27.221Z,30.070
2022-08-07T00:15:20.036Z,30.072
2022-08-07T00:20:29.893Z,30.071
2022-08-07T00:25:17.383Z,30.072
2022-08-07T00:30:26.646Z,30.074
2022-08-07T00:35:21.567Z,30.079
2022-08-07T00:40:36.717Z,30.079
2022-08-07T00:45:20.066Z,30.081
2022-08-07T00:50:43.753Z,30.082
2022-08-07T00:55:25.520Z,30.082
2022-08-07T01:00:20.060Z,30.085
2022-08-07T01:05:20.069Z,30.086
2022-08-07T01:10:18.537Z,30.085
2022-08-07T01:15:17.719Z,30.085
2022-08-07T01:20:17.442Z,30.088
2022-08-07T01:25:54.078Z,30.091
2022-08-07T01:30:17.126Z,30.092
2022-08-07T01:35:20.121Z,30.092
2022-08-07T01:40:17.149Z,30.097
2022-08-07T01:45:22.759Z,30.098
2022-08-07T01:50:28.695Z,30.100
2022-08-07T01:55:22.238Z,30.100
2022-08-07T02:00:20.141Z,30.101
2022-08-07T02:05:43.222Z,30.103
2022-08-07T02:10:20.093Z,30.102
2022-08-07T02:15:21.716Z,30.103
2022-08-07T02:20:23.459Z,30.105
2022-08-07T02:25:18.343Z,30.103
2022-08-07T02:30:17.148Z,30.106
2022-08-07T02:35:20.344Z,30.104
2022-08-07T02:36:28.479Z,30.104
2022-08-07T02:40:30.891Z,30.102
2022-08-07T02:45:58.128Z,30.104
2022-08-07T02:50:21.891Z,30.103
2022-08-07T02:55:28.394Z,30.101
2022-08-07T03:00:20.173Z,30.102
2022-08-07T03:05:20.809Z,30.101
2022-08-07T03:10:20.230Z,30.100
2022-08-07T03:15:30.375Z,30.099
2022-08-07T03:20:20.167Z,30.101
2022-08-07T03:25:21.687Z,30.103
2022-08-07T03:30:16.992Z,30.103
2022-08-07T03:35:25.964Z,30.104
2022-08-07T03:40:20.216Z,30.104
2022-08-07T03:45:30.015Z,30.105
2022-08-07T03:50:23.130Z,30.101
2022-08-07T03:55:17.135Z,30.102
2022-08-07T04:00:17.714Z,30.101
2022-08-07T04:05:16.436Z,30.097
2022-08-07T04:10:19.245Z,30.093
2022-08-07T04:15:16.550Z,30.093
2022-08-07T04:20:19.567Z,30.090
2022-08-07T04:25:16.448Z,30.091
2022-08-07T04:30:36.008Z,30.095
2022-08-07T04:35:19.416Z,30.096
2022-08-07T04:40:19.661Z,30.096
2022-08-07T04:45:58.057Z,30.098
2022-08-07T04:50:19.428Z,30.097
2022-08-07T04:58:12.052Z,30.097
2022-08-07T04:58:13.926Z,30.097
2022-08-07T04:58:15.551Z,30.097
2022-08-07T05:00:30.614Z,30.098
2022-08-07T05:05:54.087Z,30.097
2022-08-07T05:10:19.430Z,30.094
2022-08-07T05:15:23.423Z,30.095
2022-08-07T05:20:19.422Z,30.093
2022-08-07T05:25:26.114Z,30.091
2022-08-07T05:30:25.053Z,30.089
2022-08-07T05:35:23.593Z,30.089
2022-08-07T05:40:20.901Z,30.088
2022-08-07T05:45:47.055Z,30.087
2022-08-07T05:50:19.432Z,30.085
2022-08-07T05:55:19.427Z,30.086
2022-08-07T06:00:19.472Z,30.086
2022-08-07T06:05:19.637Z,30.085
2022-08-07T06:10:19.416Z,30.086
2022-08-07T06:15:20.035Z,30.085
2022-08-07T06:20:31.693Z,30.086
2022-08-07T06:25:19.451Z,30.085
2022-08-07T06:30:31.957Z,30.088
2022-08-07T06:35:19.540Z,30.088
2022-08-07T06:40:21.069Z,30.087
2022-08-07T06:45:21.056Z,30.087
2022-08-07T06:50:19.467Z,30.086
2022-08-07T06:55:34.158Z,30.085
2022-08-07T07:00:18.167Z,30.084
2022-08-07T07:06:02.441Z,30.082
2022-08-07T07:10:16.471Z,30.082
2022-08-07T07:15:26.065Z,30.080
2022-08-07T07:20:17.836Z,30.080
2022-08-07T07:26:31.623Z,30.080
2022-08-07T07:26:35.320Z,30.080
2022-08-07T07:30:32.654Z,30.078
2022-08-07T07:35:19.473Z,30.076
2022-08-07T07:40:19.501Z,30.075
2022-08-07T07:45:19.505Z,30.073
2022-08-07T07:50:33.879Z,30.073
2022-08-07T07:55:19.709Z,30.074
2022-08-07T08:00:29.780Z,30.073
2022-08-07T08:05:19.496Z,30.073
2022-08-07T08:10:37.855Z,30.072
2022-08-07T08:15:21.834Z,30.073
2022-08-07T08:20:23.137Z,30.073
2022-08-07T08:25:41.712Z,30.074
2022-08-07T08:30:19.840Z,30.072
2022-08-07T08:35:17.176Z,30.072
2022-08-07T08:40:23.368Z,30.073
2022-08-07T08:45:16.623Z,30.072
2022-08-07T08:50:35.109Z,30.073
2022-08-07T08:55:21.170Z,30.075
2022-08-07T09:00:20.958Z,30.075
2022-08-07T09:05:23.617Z,30.074
2022-08-07T09:10:19.577Z,30.074
2022-08-07T09:16:25.229Z,30.073
2022-08-07T09:16:30.156Z,30.073
2022-08-07T09:20:35.881Z,30.073
2022-08-07T09:25:17.865Z,30.074
2022-08-07T09:30:20.674Z,30.073
2022-08-07T09:36:02.890Z,30.075
2022-08-07T09:40:17.927Z,30.075
2022-08-07T09:47:20.263Z,30.075
2022-08-07T09:47:23.828Z,30.075
2022-08-07T09:47:59.059Z,30.075
2022-08-07T09:50:20.083Z,30.076
2022-08-07T09:55:29.682Z,30.077
2022-08-07T10:00:19.540Z,30.079
2022-08-07T10:05:29.410Z,30.080
2022-08-07T10:10:22.772Z,30.080
2022-08-07T10:15:18.810Z,30.080
2022-08-07T10:20:20.592Z,30.078
2022-08-07T10:25:20.870Z,30.081
2022-08-07T10:30:19.646Z,30.081
2022-08-07T10:35:20.395Z,30.082
2022-08-07T10:40:20.916Z,30.082
2022-08-07T10:45:44.587Z,30.084
2022-08-07T10:50:19.574Z,30.083
2022-08-07T10:55:20.892Z,30.084
2022-08-07T11:00:36.649Z,30.084
2022-08-07T11:05:19.610Z,30.086
2022-08-07T11:10:19.567Z,30.085
2022-08-07T11:15:19.589Z,30.085
2022-08-07T11:20:22.516Z,30.086
2022-08-07T11:25:16.593Z,30.085
2022-08-07T11:30:19.764Z,30.083
2022-08-07T11:35:26.752Z,30.083
2022-08-07T11:40:19.949Z,30.083
2022-08-07T11:45:20.738Z,30.084
2022-08-07T11:50:31.455Z,30.084
2022-08-07T11:56:15.534Z,30.084
2022-08-07T11:56:28.333Z,30.084
2022-08-07T12:00:27.591Z,30.082
2022-08-07T12:05:41.295Z,30.082
2022-08-07T12:10:19.608Z,30.083
2022-08-07T12:15:46.231Z,30.083
2022-08-07T12:20:29.589Z,30.083
2022-08-07T12:26:05.723Z,30.084
2022-08-07T12:26:30.907Z,30.084
2022-08-07T12:30:23.495Z,30.085
2022-08-07T12:35:16.643Z,30.085
2022-08-07T12:40:46.432Z,30.083
2022-08-07T12:45:19.633Z,30.083
2022-08-07T12:50:38.551Z,30.085
2022-08-07T12:55:19.660Z,30.082
2022-08-07T13:00:31.257Z,30.083
2022-08-07T13:06:03.429Z,30.081
2022-08-07T13:06:27.722Z,30.081
2022-08-07T13:10:37.531Z,30.078
2022-08-07T13:15:23.438Z,30.080
2022-08-07T13:20:19.634Z,30.080
2022-08-07T13:25:28.864Z,30.077
2022-08-07T13:30:41.372Z,30.075
2022-08-07T13:35:21.474Z,30.074
2022-08-07T13:40:36.371Z,30.075
2022-08-07T13:46:06.628Z,30.074
2022-08-07T13:50:33.594Z,30.074
2022-08-07T13:55:19.631Z,30.071
2022-08-07T14:00:26.972Z,30.072
2022-08-07T14:05:19.656Z,30.073
2022-08-07T14:10:24.754Z,30.073
2022-08-07T14:15:22.405Z,30.072
2022-08-07T14:20:41.970Z,30.072
2022-08-07T14:25:16.699Z,30.071
2022-08-07T14:30:32.361Z,30.070
2022-08-07T14:35:45.232Z,30.072
2022-08-07T14:40:27.003Z,30.071
2022-08-07T14:45:21.568Z,30.069
2022-08-07T14:50:18.289Z,30.067
2022-08-07T14:55:19.664Z,30.065
2022-08-07T15:01:25.096Z,30.065
2022-08-07T15:05:21.078Z,30.062
2022-08-07T15:10:19.838Z,30.061
2022-08-07T15:15:22.490Z,30.059
2022-08-07T15:20:33.927Z,30.055
2022-08-07T15:25:21.437Z,30.051
2022-08-07T15:30:17.126Z,30.045
2022-08-07T15:35:19.734Z,30.041
2022-08-07T15:40:34.280Z,30.041
2022-08-07T15:45:19.674Z,30.039
2022-08-07T15:50:37.823Z,30.035
2022-08-07T15:55:19.643Z,30.033
2022-08-07T16:00:31.897Z,30.027
2022-08-07T16:05:19.683Z,30.026
2022-08-07T16:10:19.662Z,30.025
2022-08-07T16:15:55.243Z,30.021
2022-08-07T16:20:33.648Z,30.020
2022-08-07T16:25:23.110Z,30.017
2022-08-07T16:30:31.945Z,30.013
2022-08-07T16:35:58.567Z,30.012
2022-08-07T16:40:23.153Z,30.011
2022-08-07T16:46:40.304Z,30.009
2022-08-07T16:47:15.719Z,30.009
2022-08-07T16:50:52.782Z,30.007
2022-08-07T16:55:19.711Z,30.003
2022-08-07T17:00:30.023Z,30.000
2022-08-07T17:06:19.758Z,29.998
2022-08-07T17:06:30.033Z,29.998
2022-08-07T17:10:30.393Z,29.999
2022-08-07T17:15:16.855Z,29.994
2022-08-07T17:20:21.430Z,29.995
2022-08-07T17:25:19.723Z,29.990
2022-08-07T17:30:20.465Z,29.993
2022-08-07T17:35:51.307Z,29.992
2022-08-07T17:40:19.758Z,29.989
2022-08-07T17:45:23.544Z,29.987
2022-08-07T17:50:20.052Z,29.986
2022-08-07T17:55:55.579Z,29.984
2022-08-07T18:00:34.450Z,29.980
2022-08-07T18:05:21.212Z,29.979
2022-08-07T18:10:32.952Z,29.976
2022-08-07T18:15:19.713Z,29.974
2022-08-07T18:21:04.330Z,29.974
2022-08-07T18:25:23.750Z,29.971
2022-08-07T18:30:32.909Z,29.967
2022-08-07T18:35:19.736Z,29.970
2022-08-07T18:40:18.650Z,29.967
2022-08-07T18:45:43.049Z,29.966
2022-08-07T18:46:27.352Z,29.966
2022-08-07T18:50:38.762Z,29.966
2022-08-07T18:55:42.663Z,29.963
2022-08-07T19:00:33.441Z,29.960
2022-08-07T19:05:17.726Z,29.962
2022-08-07T19:10:21.369Z,29.958
2022-08-07T19:16:03.453Z,29.960
2022-08-07T19:17:00.433Z,29.960
2022-08-07T19:20:29.333Z,29.960
2022-08-07T19:26:23.559Z,29.959
2022-08-07T19:26:28.984Z,29.959
2022-08-07T19:31:03.258Z,29.956
2022-08-07T19:31:41.907Z,29.956
2022-08-07T19:35:16.838Z,29.955
2022-08-07T19:40:31.390Z,29.956
2022-08-07T19:46:04.664Z,29.953
2022-08-07T19:50:41.386Z,29.953
2022-08-07T19:55:19.766Z,29.951
2022-08-07T20:00:28.281Z,29.948
2022-08-07T20:05:16.814Z,29.945
2022-08-07T20:10:36.181Z,29.940
2022-08-07T20:15:21.843Z,29.939
2022-08-07T20:20:19.801Z,29.942
2022-08-07T20:25:19.726Z,29.939
2022-08-07T20:30:22.353Z,29.938
2022-08-07T20:35:26.602Z,29.938
2022-08-07T20:40:33.367Z,29.938
2022-08-07T20:45:33.159Z,29.939
2022-08-07T20:46:31.356Z,29.939
2022-08-07T20:50:16.810Z,29.942
2022-08-07T20:55:19.811Z,29.942
2022-08-07T21:00:19.868Z,29.941
2022-08-07T21:05:43.000Z,29.943
2022-08-07T21:10:29.577Z,29.942
2022-08-07T21:15:18.647Z,29.940
2022-08-07T21:20:30.209Z,29.939
2022-08-07T21:25:16.861Z,29.939
2022-08-07T21:30:19.866Z,29.936
2022-08-07T21:36:00.009Z,29.934
2022-08-07T21:40:19.934Z,29.936
2022-08-07T21:46:03.534Z,29.935
2022-08-07T21:50:16.859Z,29.936
2022-08-07T21:55:28.336Z,29.932
2022-08-07T22:00:22.202Z,29.934
2022-08-07T22:05:21.985Z,29.931
2022-08-07T22:10:19.868Z,29.930
2022-08-07T22:16:41.422Z,29.929
2022-08-07T22:16:43.805Z,29.929
2022-08-07T22:20:23.488Z,29.929
2022-08-07T22:25:19.823Z,29.926
2022-08-07T22:30:19.870Z,29.928
2022-08-07T22:35:23.372Z,29.929
2022-08-07T22:40:19.809Z,29.932
2022-08-07T22:46:04.317Z,29.934
2022-08-07T22:46:56.011Z,29.934
2022-08-07T22:50:20.606Z,29.934
2022-08-07T22:55:23.338Z,29.932
2022-08-07T23:00:21.386Z,29.932
2022-08-07T23:06:07.025Z,29.937
2022-08-07T23:10:37.380Z,29.942
2022-08-07T23:15:21.908Z,29.944
2022-08-07T23:20:16.919Z,29.949
2022-08-07T23:25:16.912Z,29.974
2022-08-07T23:30:36.325Z,29.971
2022-08-07T23:35:16.962Z,29.978
2022-08-07T23:40:19.887Z,29.982
2022-08-07T23:45:33.573Z,29.981
2022-08-07T23:50:19.888Z,29.983
2022-08-07T23:55:53.634Z,29.989
